Pagina principale
METAR-TAF:

METAR-TAF

Aeroporti :

Pescara, Italia

Aeroporto di Pescara

latitudine: 42-26N, longitudine: 014-12E, altezza: 10 m

Osservazione

Il bollettino è stato emesso 1 ora e 3 minuti fa, alle 14:50 UTC
Vento 5 kt da nord-est
Temperature 14°C
Umidità 58%
Pressione 1011 hPa
Visibilità 10 km o più
nessuna nube inferiore a 1500 m e nessun cumulonembo

METAR: LIBP 191450Z 04005KT CAVOK 14/06 Q1011

Ora: 16:53 (15:53 UTC)

Previsione

Il bollettino è stato emesso 4 ore e 53 minuti fa, alle 11:00 UTC
Previsione valida dal 19 alle 12 UTC al 20 alle 12 UTC
Vento 6 kt da direzioni variabili
Visibilità 10 km o più
Nubi sparse ad un'altezza di 3000 ft

TAF: LIBP 191100Z 1912/2012 VRB06KT 9999 SCT030

Osservazioni e previsioni meteorologiche di più di 4000 aeroporti (messaggi METAR e TAF).

Le stazioni disponibili sono rappresentate dai dischi gialli e rossi sulla carta.

Puntare il mouse per vedere il nome della stazione.

Clicca sopra per visualizzare le osservazioni e previsioni meteorologiche.

Per cambiare la mappa : fare clic sui pulsanti verdi con una croce nera per ingrandire, il pulsante verde con un trattino per diminuire, o sulla freccia verde per le mappe adiacenti.


METAR-TAF: